Sunny Hill Estates, Illinois
Current Conditions -  °F | °C
As of 3:52 PM on Thursday 18 Dec 2014 (Local Time) from KMLI Reporting Station
Scattered Clouds Scattered Clouds  
Wind Chill: 23°   Ceiling: Unl
Heat Index: 29°   Visibility: 10mi
Dew Point: 17°   Wind: 6mph
Humidity: 61%   Direction: 310°NW
Pressure: 30.25"   Gusts: NA
Location:  41.3669°N, 90.3966°W
Report Text: KMLI 182152Z 31005KT 10SM SCT095 M02/M08 A3025 RMK AO2 SLP254 T10171083
Loading
Personal Weather Stations






























Interactive Weather Map New forecast layout! Learn more

10-Day Weather Forecast

Advertisements
Track Severe Weather on mobile